RER1015 SECU-SEQM
Flight info
| Callsign | RER1015 |
|---|---|
| Flight time | 0h 34m |
| Altitude | 28000 |
| Route | VUTNI2 VUTNI UW5 REBEK/N0379F270 DCT EDMAL DCT |
| Aircraft | B736/M-SDE2E3FGHIRWXY/LB1 |
Departure
| Time | 2026-05-05 17:17 |
|---|---|
| Airport | Mariscal Lamar Airport (SECU) |
Arrival
| Time | 2026-05-05 17:51 |
|---|---|
| Airport | Mariscal Sucre International Airport (SEQM) |
| Time | Latitude | Longitude | Altitude | Speed | Heading |
|---|---|---|---|---|---|
| 2026-05-05 16:58 | -2.89027 | -78.98729 | 8381 ft | 0 kts | 322° |
| 2026-05-05 17:10 | -2.89066 | -78.98699 | 8289 ft | 0 kts | 322° |
| 2026-05-05 17:13 | -2.89066 | -78.98700 | 8289 ft | 1 kts | 317° |
| 2026-05-05 17:13 | -2.89067 | -78.98704 | 8290 ft | 1 kts | 263° |
| 2026-05-05 17:14 | -2.89074 | -78.98718 | 8290 ft | 4 kts | 239° |
| 2026-05-05 17:14 | -2.89103 | -78.98756 | 8293 ft | 9 kts | 232° |
| 2026-05-05 17:14 | -2.89152 | -78.98818 | 8296 ft | 14 kts | 232° |
| 2026-05-05 17:14 | -2.89221 | -78.98907 | 8300 ft | 19 kts | 232° |
| 2026-05-05 17:15 | -2.89305 | -78.99016 | 8307 ft | 19 kts | 232° |
| 2026-05-05 17:15 | -2.89373 | -78.99100 | 8310 ft | 12 kts | 221° |
| 2026-05-05 17:15 | -2.89413 | -78.99116 | 8313 ft | 6 kts | 176° |
| 2026-05-05 17:15 | -2.89439 | -78.99090 | 8311 ft | 6 kts | 102° |
| 2026-05-05 17:16 | -2.89429 | -78.99053 | 8312 ft | 6 kts | 51° |
| 2026-05-05 17:16 | -2.89400 | -78.99017 | 8307 ft | 9 kts | 51° |
| 2026-05-05 17:16 | -2.89309 | -78.98900 | 8301 ft | 51 kts | 52° |
| 2026-05-05 17:16 | -2.88919 | -78.98406 | 8278 ft | 127 kts | 52° |
| 2026-05-05 17:17 | -2.88274 | -78.97574 | 8477 ft | 165 kts | 52° |
| 2026-05-05 17:17 | -2.87552 | -78.96638 | 9221 ft | 175 kts | 53° |
| 2026-05-05 17:17 | -2.86749 | -78.95642 | 9909 ft | 190 kts | 53° |
| 2026-05-05 17:17 | -2.85900 | -78.94610 | 10606 ft | 203 kts | 51° |
| 2026-05-05 17:18 | -2.84952 | -78.93480 | 10958 ft | 218 kts | 51° |
| 2026-05-05 17:18 | -2.83951 | -78.92348 | 11618 ft | 223 kts | 41° |
| 2026-05-05 17:18 | -2.82545 | -78.91628 | 12149 ft | 236 kts | 21° |
| 2026-05-05 17:18 | -2.80843 | -78.91258 | 12431 ft | 267 kts | 11° |
| 2026-05-05 17:19 | -2.78895 | -78.91016 | 12652 ft | 299 kts | 9° |
| 2026-05-05 17:19 | -2.76741 | -78.90759 | 13012 ft | 321 kts | 9° |
| 2026-05-05 17:19 | -2.74485 | -78.90478 | 13712 ft | 331 kts | 11° |
| 2026-05-05 17:19 | -2.72198 | -78.90142 | 14607 ft | 334 kts | 11° |
| 2026-05-05 17:20 | -2.69895 | -78.89779 | 15481 ft | 336 kts | 12° |
| 2026-05-05 17:20 | -2.67567 | -78.89411 | 16269 ft | 342 kts | 12° |
| 2026-05-05 17:20 | -2.65239 | -78.89053 | 17081 ft | 344 kts | 11° |
| 2026-05-05 17:20 | -2.62852 | -78.88704 | 17633 ft | 348 kts | 11° |
| 2026-05-05 17:21 | -2.60547 | -78.88372 | 17919 ft | 351 kts | 11° |
| 2026-05-05 17:21 | -2.58005 | -78.88005 | 17911 ft | 356 kts | 11° |
| 2026-05-05 17:21 | -2.55526 | -78.87646 | 18391 ft | 361 kts | 11° |
| 2026-05-05 17:22 | -2.50599 | -78.86929 | 20030 ft | 360 kts | 11° |
| 2026-05-05 17:22 | -2.48101 | -78.86565 | 20670 ft | 365 kts | 11° |
| 2026-05-05 17:22 | -2.45605 | -78.86201 | 21348 ft | 369 kts | 11° |
| 2026-05-05 17:22 | -2.43043 | -78.85829 | 22005 ft | 374 kts | 10° |
| 2026-05-05 17:23 | -2.40466 | -78.85453 | 22782 ft | 374 kts | 10° |
| 2026-05-05 17:23 | -2.37902 | -78.85081 | 23692 ft | 372 kts | 11° |
| 2026-05-05 17:23 | -2.35350 | -78.84711 | 24436 ft | 370 kts | 10° |
| 2026-05-05 17:23 | -2.32812 | -78.84343 | 25171 ft | 369 kts | 11° |
| 2026-05-05 17:24 | -2.30269 | -78.83975 | 25974 ft | 366 kts | 11° |
| 2026-05-05 17:24 | -2.27753 | -78.83610 | 26771 ft | 365 kts | 11° |
| 2026-05-05 17:24 | -2.25276 | -78.83251 | 27555 ft | 363 kts | 11° |
| 2026-05-05 17:24 | -2.22766 | -78.82886 | 27942 ft | 363 kts | 11° |
| 2026-05-05 17:25 | -2.20277 | -78.82524 | 28170 ft | 364 kts | 11° |
| 2026-05-05 17:25 | -2.15246 | -78.81792 | 28142 ft | 363 kts | 11° |
| 2026-05-05 17:26 | -2.10265 | -78.81069 | 28153 ft | 361 kts | 11° |
| 2026-05-05 17:26 | -2.05309 | -78.80349 | 28147 ft | 360 kts | 11° |
| 2026-05-05 17:27 | -2.00380 | -78.79632 | 28149 ft | 361 kts | 11° |
| 2026-05-05 17:27 | -1.95405 | -78.78909 | 28234 ft | 362 kts | 11° |
| 2026-05-05 17:28 | -1.90431 | -78.78186 | 28340 ft | 363 kts | 11° |
| 2026-05-05 17:28 | -1.85413 | -78.77458 | 28422 ft | 363 kts | 11° |
| 2026-05-05 17:29 | -1.80443 | -78.76735 | 28486 ft | 364 kts | 11° |
| 2026-05-05 17:29 | -1.75422 | -78.76007 | 28509 ft | 364 kts | 11° |
| 2026-05-05 17:30 | -1.70407 | -78.75278 | 28527 ft | 364 kts | 11° |
| 2026-05-05 17:30 | -1.65405 | -78.74552 | 28525 ft | 363 kts | 11° |
| 2026-05-05 17:31 | -1.60443 | -78.73831 | 28526 ft | 362 kts | 11° |
| 2026-05-05 17:31 | -1.55454 | -78.73107 | 28514 ft | 362 kts | 11° |
| 2026-05-05 17:32 | -1.50475 | -78.72384 | 28499 ft | 361 kts | 11° |
| 2026-05-05 17:32 | -1.45512 | -78.71663 | 28471 ft | 361 kts | 11° |
| 2026-05-05 17:33 | -1.40553 | -78.70943 | 28421 ft | 362 kts | 11° |
| 2026-05-05 17:33 | -1.35566 | -78.70219 | 28364 ft | 362 kts | 11° |
| 2026-05-05 17:34 | -1.30581 | -78.69495 | 28273 ft | 362 kts | 11° |
| 2026-05-05 17:34 | -1.28076 | -78.69131 | 27940 ft | 365 kts | 11° |
| 2026-05-05 17:34 | -1.25560 | -78.68766 | 27536 ft | 367 kts | 11° |
| 2026-05-05 17:34 | -1.23036 | -78.68399 | 27136 ft | 366 kts | 11° |
| 2026-05-05 17:35 | -1.20511 | -78.68033 | 26668 ft | 367 kts | 10° |
| 2026-05-05 17:35 | -1.18015 | -78.67670 | 26250 ft | 367 kts | 10° |
| 2026-05-05 17:35 | -1.15497 | -78.67305 | 25864 ft | 366 kts | 10° |
| 2026-05-05 17:35 | -1.12983 | -78.66940 | 25487 ft | 364 kts | 10° |
| 2026-05-05 17:36 | -1.10478 | -78.66577 | 25098 ft | 363 kts | 10° |
| 2026-05-05 17:36 | -1.07981 | -78.66187 | 24703 ft | 362 kts | 14° |
| 2026-05-05 17:36 | -1.05578 | -78.65476 | 24273 ft | 360 kts | 23° |
| 2026-05-05 17:36 | -1.03271 | -78.64503 | 23820 ft | 360 kts | 25° |
| 2026-05-05 17:37 | -1.00982 | -78.63506 | 23379 ft | 358 kts | 25° |
| 2026-05-05 17:37 | -0.99480 | -78.62850 | 23104 ft | 356 kts | 25° |
| 2026-05-05 17:37 | -0.96482 | -78.61544 | 22564 ft | 351 kts | 25° |
| 2026-05-05 17:37 | -0.94270 | -78.60587 | 22152 ft | 342 kts | 25° |
| 2026-05-05 17:38 | -0.92110 | -78.59657 | 21773 ft | 336 kts | 25° |
| 2026-05-05 17:38 | -0.89973 | -78.58739 | 21415 ft | 334 kts | 25° |
| 2026-05-05 17:38 | -0.87848 | -78.57827 | 21043 ft | 332 kts | 25° |
| 2026-05-05 17:38 | -0.85734 | -78.56921 | 20672 ft | 329 kts | 25° |
| 2026-05-05 17:39 | -0.83666 | -78.56036 | 20319 ft | 328 kts | 25° |
| 2026-05-05 17:39 | -0.81577 | -78.55142 | 19938 ft | 327 kts | 25° |
| 2026-05-05 17:39 | -0.79480 | -78.54244 | 19559 ft | 326 kts | 25° |
| 2026-05-05 17:39 | -0.77401 | -78.53355 | 19179 ft | 325 kts | 25° |
| 2026-05-05 17:40 | -0.75321 | -78.52465 | 18777 ft | 325 kts | 25° |
| 2026-05-05 17:40 | -0.73250 | -78.51578 | 18370 ft | 323 kts | 25° |
| 2026-05-05 17:40 | -0.71186 | -78.50695 | 17957 ft | 321 kts | 25° |
| 2026-05-05 17:40 | -0.69138 | -78.49819 | 17524 ft | 320 kts | 25° |
| 2026-05-05 17:41 | -0.67072 | -78.48933 | 16921 ft | 325 kts | 26° |
| 2026-05-05 17:41 | -0.65024 | -78.48057 | 16465 ft | 322 kts | 26° |
| 2026-05-05 17:41 | -0.63017 | -78.47200 | 16253 ft | 304 kts | 26° |
| 2026-05-05 17:41 | -0.61122 | -78.46392 | 16096 ft | 288 kts | 26° |
| 2026-05-05 17:42 | -0.59321 | -78.45622 | 15943 ft | 280 kts | 26° |
| 2026-05-05 17:42 | -0.57534 | -78.44857 | 15814 ft | 273 kts | 26° |
| 2026-05-05 17:42 | -0.55813 | -78.44120 | 15684 ft | 266 kts | 26° |
| 2026-05-05 17:42 | -0.54141 | -78.43404 | 15583 ft | 258 kts | 27° |
| 2026-05-05 17:43 | -0.52533 | -78.42717 | 15492 ft | 242 kts | 26° |
| 2026-05-05 17:43 | -0.51064 | -78.42089 | 15371 ft | 223 kts | 27° |
| 2026-05-05 17:43 | -0.49679 | -78.41499 | 15194 ft | 212 kts | 26° |
| 2026-05-05 17:43 | -0.48330 | -78.40921 | 14969 ft | 210 kts | 26° |
| 2026-05-05 17:44 | -0.46950 | -78.40393 | 14656 ft | 214 kts | 23° |
| 2026-05-05 17:44 | -0.45537 | -78.39897 | 14343 ft | 217 kts | 24° |
| 2026-05-05 17:44 | -0.44108 | -78.39391 | 13990 ft | 219 kts | 24° |
| 2026-05-05 17:44 | -0.42657 | -78.38876 | 13615 ft | 221 kts | 22° |
| 2026-05-05 17:45 | -0.41210 | -78.38362 | 13270 ft | 220 kts | 23° |
| 2026-05-05 17:45 | -0.39766 | -78.37847 | 12895 ft | 219 kts | 22° |
| 2026-05-05 17:45 | -0.38358 | -78.37375 | 12596 ft | 212 kts | 22° |
| 2026-05-05 17:45 | -0.37008 | -78.36935 | 12371 ft | 202 kts | 21° |
| 2026-05-05 17:46 | -0.35707 | -78.36512 | 12145 ft | 193 kts | 21° |
| 2026-05-05 17:46 | -0.34441 | -78.36097 | 11924 ft | 191 kts | 21° |
| 2026-05-05 17:46 | -0.33186 | -78.35684 | 11704 ft | 189 kts | 19° |
| 2026-05-05 17:46 | -0.31934 | -78.35274 | 11484 ft | 191 kts | 19° |
| 2026-05-05 17:47 | -0.30664 | -78.34857 | 11255 ft | 193 kts | 19° |
| 2026-05-05 17:47 | -0.29340 | -78.34677 | 10988 ft | 193 kts | 356° |
| 2026-05-05 17:47 | -0.28013 | -78.34758 | 10758 ft | 191 kts | 358° |
| 2026-05-05 17:47 | -0.26702 | -78.34817 | 10502 ft | 190 kts | 358° |
| 2026-05-05 17:48 | -0.25406 | -78.34873 | 10242 ft | 181 kts | 358° |
| 2026-05-05 17:48 | -0.24196 | -78.34925 | 10006 ft | 167 kts | 358° |
| 2026-05-05 17:48 | -0.23096 | -78.34974 | 9818 ft | 152 kts | 359° |
| 2026-05-05 17:48 | -0.22042 | -78.35019 | 9624 ft | 152 kts | 359° |
| 2026-05-05 17:49 | -0.20963 | -78.35066 | 9402 ft | 157 kts | 359° |
| 2026-05-05 17:49 | -0.19877 | -78.35114 | 9180 ft | 154 kts | 359° |
| 2026-05-05 17:49 | -0.18814 | -78.35178 | 8957 ft | 152 kts | 1° |
| 2026-05-05 17:49 | -0.17966 | -78.35216 | 8720 ft | 152 kts | 0° |
| 2026-05-05 17:50 | -0.16930 | -78.35251 | 8477 ft | 150 kts | 359° |
| 2026-05-05 17:50 | -0.15889 | -78.35297 | 8265 ft | 149 kts | 359° |
| 2026-05-05 17:50 | -0.14824 | -78.35334 | 8078 ft | 155 kts | 359° |
| 2026-05-05 17:50 | -0.13748 | -78.35389 | 7900 ft | 151 kts | 359° |
| 2026-05-05 17:51 | -0.12848 | -78.35426 | 7863 ft | 100 kts | 358° |
| 2026-05-05 17:51 | -0.12367 | -78.35446 | 7841 ft | 39 kts | 358° |
| 2026-05-05 17:51 | -0.12095 | -78.35458 | 7830 ft | 39 kts | 357° |
| 2026-05-05 17:51 | -0.11837 | -78.35474 | 7821 ft | 27 kts | 343° |
| 2026-05-05 17:52 | -0.11688 | -78.35537 | 7817 ft | 19 kts | 328° |
| 2026-05-05 17:52 | -0.11610 | -78.35599 | 7813 ft | 13 kts | 287° |
| 2026-05-05 17:52 | -0.11670 | -78.35645 | 7816 ft | 13 kts | 174° |
| 2026-05-05 17:52 | -0.11758 | -78.35640 | 7819 ft | 12 kts | 178° |
| 2026-05-05 17:53 | -0.11843 | -78.35637 | 7823 ft | 12 kts | 177° |
| 2026-05-05 17:53 | -0.11927 | -78.35633 | 7826 ft | 12 kts | 178° |
| 2026-05-05 17:53 | -0.12011 | -78.35629 | 7831 ft | 12 kts | 178° |
| 2026-05-05 17:53 | -0.12105 | -78.35626 | 7836 ft | 16 kts | 178° |
| 2026-05-05 17:54 | -0.12232 | -78.35621 | 7835 ft | 22 kts | 178° |
| 2026-05-05 17:54 | -0.12404 | -78.35614 | 7841 ft | 27 kts | 176° |
| 2026-05-05 17:54 | -0.12553 | -78.35608 | 7842 ft | 16 kts | 178° |
| 2026-05-05 17:54 | -0.12651 | -78.35605 | 7843 ft | 13 kts | 183° |
| 2026-05-05 17:55 | -0.12691 | -78.35674 | 7838 ft | 13 kts | 267° |
| 2026-05-05 17:55 | -0.12695 | -78.35751 | 7837 ft | 10 kts | 267° |
| 2026-05-05 17:55 | -0.12707 | -78.35805 | 7834 ft | 7 kts | 212° |
| 2026-05-05 17:55 | -0.12751 | -78.35808 | 7841 ft | 6 kts | 177° |
| 2026-05-05 17:56 | -0.12760 | -78.35807 | 7841 ft | 0 kts | 177° |
| 2026-05-05 17:56 | -0.12762 | -78.35807 | 7841 ft | 0 kts | 177° |